Time;durP1;ratioP1;P1;durP2;ratioP2;P2;SDS_P1;SDS_P2;PMS_P1;PMS_P2;Temp;Humidity;BMP_temperature;BMP_pressure;BME280_temperature;BME280_humidity;BME280_pressure;Samples;Min_cycle;Max_cycle;Signal;HPM_P1;HPM_P2
2023/04/01 00:00:58;;;;;;;1;0.7;;;;;;;;;;;;;
2023/04/01 00:03:27;;;;;;;1;0.8;;;;;;;;;;;;;
2023/04/01 00:05:51;;;;;;;1.2;0.7;;;;;;;;;;;;;
2023/04/01 00:11:09;;;;;;;1.9;0.7;;;;;;;;;;;;;
2023/04/01 00:13:34;;;;;;;1.2;0.8;;;;;;;;;;;;;
2023/04/01 00:16:01;;;;;;;1.1;1;;;;;;;;;;;;;
2023/04/01 00:18:26;;;;;;;1.6;0.7;;;;;;;;;;;;;
2023/04/01 00:20:51;;;;;;;1.5;0.8;;;;;;;;;;;;;
2023/04/01 00:23:17;;;;;;;1.7;1.1;;;;;;;;;;;;;
2023/04/01 00:25:42;;;;;;;0.8;0.6;;;;;;;;;;;;;
2023/04/01 00:28:07;;;;;;;1.4;0.8;;;;;;;;;;;;;
2023/04/01 00:30:32;;;;;;;0.8;0.4;;;;;;;;;;;;;
2023/04/01 00:32:58;;;;;;;1.3;0.7;;;;;;;;;;;;;
2023/04/01 00:35:24;;;;;;;2;0.8;;;;;;;;;;;;;
2023/04/01 00:37:51;;;;;;;0.9;0.6;;;;;;;;;;;;;
2023/04/01 00:40:15;;;;;;;2;0.6;;;;;;;;;;;;;
2023/04/01 00:42:42;;;;;;;1.1;0.5;;;;;;;;;;;;;
2023/04/01 00:45:07;;;;;;;1.2;0.6;;;;;;;;;;;;;
2023/04/01 00:47:44;;;;;;;1.6;0.7;;;;;;;;;;;;;
2023/04/01 00:49:57;;;;;;;1.2;0.6;;;;;;;;;;;;;
2023/04/01 00:52:24;;;;;;;1;0.6;;;;;;;;;;;;;
2023/04/01 00:54:48;;;;;;;0.6;0.6;;;;;;;;;;;;;
2023/04/01 00:57:15;;;;;;;0.5;0.5;;;;;;;;;;;;;
2023/04/01 00:59:41;;;;;;;1.4;0.7;;;;;;;;;;;;;
2023/04/01 01:02:08;;;;;;;1.4;0.7;;;;;;;;;;;;;
2023/04/01 01:04:33;;;;;;;1.4;0.5;;;;;;;;;;;;;
2023/04/01 01:06:59;;;;;;;1.1;0.4;;;;;;;;;;;;;
2023/04/01 01:09:24;;;;;;;3.3;0.7;;;;;;;;;;;;;
2023/04/01 01:11:49;;;;;;;1.1;0.7;;;;;;;;;;;;;
2023/04/01 01:14:14;;;;;;;0.7;0.5;;;;;;;;;;;;;
2023/04/01 01:16:39;;;;;;;1;0.6;;;;;;;;;;;;;
2023/04/01 01:19:06;;;;;;;1.2;0.7;;;;;;;;;;;;;
2023/04/01 01:21:31;;;;;;;2;1.1;;;;;;;;;;;;;
2023/04/01 01:23:56;;;;;;;0.8;0.5;;;;;;;;;;;;;
2023/04/01 01:26:25;;;;;;;1.5;0.8;;;;;;;;;;;;;
2023/04/01 01:28:48;;;;;;;0.7;0.7;;;;;;;;;;;;;
2023/04/01 01:31:13;;;;;;;0.7;0.6;;;;;;;;;;;;;
2023/04/01 01:33:39;;;;;;;1.2;0.7;;;;;;;;;;;;;
2023/04/01 01:36:04;;;;;;;1.8;0.5;;;;;;;;;;;;;
2023/04/01 01:38:30;;;;;;;1.8;0.7;;;;;;;;;;;;;
2023/04/01 01:40:56;;;;;;;1.4;0.8;;;;;;;;;;;;;
2023/04/01 01:43:21;;;;;;;1.7;0.8;;;;;;;;;;;;;
2023/04/01 01:45:46;;;;;;;1.6;1;;;;;;;;;;;;;
2023/04/01 01:48:13;;;;;;;2.1;1.1;;;;;;;;;;;;;
2023/04/01 01:50:38;;;;;;;3.8;2.2;;;;;;;;;;;;;
2023/04/01 01:53:04;;;;;;;1.7;1;;;;;;;;;;;;;
2023/04/01 01:55:30;;;;;;;3.7;0.9;;;;;;;;;;;;;
2023/04/01 01:57:55;;;;;;;3.2;1;;;;;;;;;;;;;
2023/04/01 02:00:23;;;;;;;2.6;0.9;;;;;;;;;;;;;
2023/04/01 02:02:48;;;;;;;1.8;0.9;;;;;;;;;;;;;
2023/04/01 02:05:15;;;;;;;1.2;0.9;;;;;;;;;;;;;
2023/04/01 02:07:40;;;;;;;0.7;0.7;;;;;;;;;;;;;
2023/04/01 02:10:08;;;;;;;0.7;0.6;;;;;;;;;;;;;
2023/04/01 02:12:33;;;;;;;1.7;0.7;;;;;;;;;;;;;
2023/04/01 02:15:00;;;;;;;1.4;0.6;;;;;;;;;;;;;
2023/04/01 02:17:26;;;;;;;0.8;0.5;;;;;;;;;;;;;
2023/04/01 02:19:52;;;;;;;1.2;0.6;;;;;;;;;;;;;
2023/04/01 02:22:17;;;;;;;1.1;0.5;;;;;;;;;;;;;
2023/04/01 02:24:42;;;;;;;1.6;0.6;;;;;;;;;;;;;
2023/04/01 02:27:07;;;;;;;2.3;0.7;;;;;;;;;;;;;
2023/04/01 02:29:32;;;;;;;1.5;0.6;;;;;;;;;;;;;
2023/04/01 02:31:57;;;;;;;0.6;0.6;;;;;;;;;;;;;
2023/04/01 02:34:22;;;;;;;1.4;0.5;;;;;;;;;;;;;
2023/04/01 02:36:49;;;;;;;0.5;0.4;;;;;;;;;;;;;
2023/04/01 02:39:14;;;;;;;0.9;0.6;;;;;;;;;;;;;
2023/04/01 02:41:39;;;;;;;1.4;0.7;;;;;;;;;;;;;
2023/04/01 02:44:05;;;;;;;0.9;0.4;;;;;;;;;;;;;
2023/04/01 02:46:30;;;;;;;0.8;0.5;;;;;;;;;;;;;
2023/04/01 02:48:55;;;;;;;2.3;0.6;;;;;;;;;;;;;
2023/04/01 02:51:21;;;;;;;2.1;0.7;;;;;;;;;;;;;
2023/04/01 02:53:46;;;;;;;0.6;0.6;;;;;;;;;;;;;
2023/04/01 02:56:12;;;;;;;0.7;0.6;;;;;;;;;;;;;
2023/04/01 02:58:37;;;;;;;0.9;0.6;;;;;;;;;;;;;
2023/04/01 03:01:04;;;;;;;3.2;0.6;;;;;;;;;;;;;
2023/04/01 03:03:29;;;;;;;1.4;0.5;;;;;;;;;;;;;
2023/04/01 03:05:59;;;;;;;0.6;0.6;;;;;;;;;;;;;
2023/04/01 03:08:24;;;;;;;1;0.9;;;;;;;;;;;;;
2023/04/01 03:10:49;;;;;;;1.4;0.7;;;;;;;;;;;;;
2023/04/01 03:13:16;;;;;;;0.7;0.5;;;;;;;;;;;;;
2023/04/01 03:15:42;;;;;;;2;0.7;;;;;;;;;;;;;
2023/04/01 03:18:07;;;;;;;1;0.4;;;;;;;;;;;;;
2023/04/01 03:20:33;;;;;;;5.4;3.2;;;;;;;;;;;;;
2023/04/01 03:22:58;;;;;;;4.4;2.6;;;;;;;;;;;;;
2023/04/01 03:25:23;;;;;;;1.2;0.7;;;;;;;;;;;;;
2023/04/01 03:30:13;;;;;;;1.5;0.8;;;;;;;;;;;;;
2023/04/01 03:32:39;;;;;;;0.6;0.6;;;;;;;;;;;;;
2023/04/01 03:35:04;;;;;;;0.6;0.6;;;;;;;;;;;;;
2023/04/01 03:37:31;;;;;;;1.5;0.7;;;;;;;;;;;;;
2023/04/01 03:39:56;;;;;;;1.2;0.6;;;;;;;;;;;;;
2023/04/01 03:42:22;;;;;;;1.7;0.8;;;;;;;;;;;;;
2023/04/01 03:44:47;;;;;;;0.6;0.6;;;;;;;;;;;;;
2023/04/01 03:47:12;;;;;;;0.6;0.4;;;;;;;;;;;;;
2023/04/01 03:49:37;;;;;;;1.1;0.4;;;;;;;;;;;;;
2023/04/01 03:52:02;;;;;;;1.5;0.7;;;;;;;;;;;;;
2023/04/01 03:54:31;;;;;;;1.1;0.5;;;;;;;;;;;;;
2023/04/01 03:56:57;;;;;;;0.8;0.5;;;;;;;;;;;;;
2023/04/01 03:59:21;;;;;;;0.9;0.6;;;;;;;;;;;;;
2023/04/01 04:11:46;;;;;;;1.2;0.7;;;;;;;5.91;94.6582;926.7658;;;;
2023/04/01 04:14:17;;;;;;;1.2;0.8;;;;;;;5.94;95.08008;926.6633;;;;
2023/04/01 04:16:46;;;;;;;1.4;1.3;;;;;;;6.05;94.82227;926.775;;;;
2023/04/01 04:19:12;;;;;;;1.6;0.7;;;;;;;6.16;94.33691;926.6865;;;;
2023/04/01 04:21:37;;;;;;;0.4;0.4;;;;;;;6.09;93.26074;926.6268;;;;
2023/04/01 04:27:57;;;;;;;1.5;0.6;;;;;;;5.88;93.29297;926.5945;;;;
2023/04/01 04:30:22;;;;;;;1.2;0.8;;;;;;;5.97;94.53223;926.5923;;;;
2023/04/01 04:32:51;;;;;;;1.5;1.2;;;;;;;6.02;95.15527;926.6989;;;;
2023/04/01 04:35:22;;;;;;;2.1;1;;;;;;;5.93;94.54688;926.7683;;;;
2023/04/01 04:37:47;;;;;;;2.5;1.3;;;;;;;6;95.15039;926.7625;;;;
2023/04/01 04:40:15;;;;;;;1;0.7;;;;;;;6.09;93.4209;926.7809;;;;
2023/04/01 04:42:40;;;;;;;1.3;0.8;;;;;;;6.16;93.88477;926.7734;;;;
2023/04/01 04:45:12;;;;;;;1.4;0.8;;;;;;;6.28;93.15527;926.8915;;;;
2023/04/01 04:47:36;;;;;;;0.7;0.5;;;;;;;6.3;93.11621;926.9755;;;;
2023/04/01 04:50:03;;;;;;;0.8;0.6;;;;;;;6.31;92.42676;927.0033;;;;
2023/04/01 04:52:28;;;;;;;0.8;0.8;;;;;;;6.29;93.42871;927.0038;;;;
2023/04/01 04:54:54;;;;;;;1.5;0.9;;;;;;;6.29;93.73242;926.954;;;;
2023/04/01 04:57:22;;;;;;;0.9;0.7;;;;;;;6.05;94.20215;926.9386;;;;
2023/04/01 04:59:47;;;;;;;2.5;0.6;;;;;;;6.1;94.3252;926.9722;;;;
2023/04/01 05:02:16;;;;;;;0.8;0.5;;;;;;;6.05;95.14063;926.9418;;;;
2023/04/01 05:04:47;;;;;;;2.1;0.8;;;;;;;5.98;96.47754;926.8831;;;;
2023/04/01 05:07:20;;;;;;;1.7;1.3;;;;;;;6.15;95.65918;926.9465;;;;
2023/04/01 05:12:33;;;;;;;2.7;1.2;;;;;;;6.09;95.63379;926.9792;;;;
2023/04/01 05:15:00;;;;;;;1.7;0.9;;;;;;;6.22;94.55469;927.0437;;;;
2023/04/01 05:17:25;;;;;;;1;0.6;;;;;;;6.31;93.01465;927.0499;;;;
2023/04/01 05:19:54;;;;;;;1.8;1;;;;;;;6.41;93.5;927.0667;;;;
2023/04/01 05:22:19;;;;;;;1.4;1.3;;;;;;;6.38;94.2627;927.0171;;;;
2023/04/01 05:24:50;;;;;;;1.5;0.8;;;;;;;6.44;94.09375;927.0249;;;;
2023/04/01 05:27:18;;;;;;;1.7;1.6;;;;;;;6.45;94.53906;927.0297;;;;
2023/04/01 05:29:43;;;;;;;1.1;0.6;;;;;;;6.38;94.38672;927.0084;;;;
2023/04/01 05:32:08;;;;;;;1.2;1.1;;;;;;;6.35;94.47168;927.058;;;;
2023/04/01 05:34:33;;;;;;;0.7;0.6;;;;;;;6.35;94.94629;927.0698;;;;
2023/04/01 05:39:37;;;;;;;1.4;1;;;;;;;6.29;94.79492;927.052;;;;
2023/04/01 05:42:07;;;;;;;1.1;1;;;;;;;6.41;94.7998;926.9963;;;;
2023/04/01 05:44:33;;;;;;;1.9;0.9;;;;;;;6.52;94.23828;927.1132;;;;
2023/04/01 05:46:59;;;;;;;2.6;1.6;;;;;;;6.61;93.77148;927.1962;;;;
2023/04/01 05:49:24;;;;;;;1.9;1.5;;;;;;;6.67;93.38867;927.0764;;;;
2023/04/01 05:51:54;;;;;;;4.2;3;;;;;;;6.77;92.71875;927.2202;;;;
2023/04/01 05:55:33;;;;;;;8.2;4.9;;;;;;;6.82;92.37891;927.1392;;;;
2023/04/01 05:57:59;;;;;;;15.3;14.3;;;;;;;7;90.08496;927.2351;;;;
2023/04/01 06:00:26;;;;;;;5.2;4.8;;;;;;;7.35;89.31836;927.1262;;;;
2023/04/01 06:03:29;;;;;;;3.9;3.3;;;;;;;7.55;88.38672;927.1128;;;;
2023/04/01 06:05:58;;;;;;;1.9;1.4;;;;;;;7.76;88.48633;927.0748;;;;
2023/04/01 06:08:23;;;;;;;1;0.9;;;;;;;8.19;83.80371;927.044;;;;
2023/04/01 06:10:52;;;;;;;0.6;0.4;;;;;;;9.34;80.95313;927.0309;;;;
2023/04/01 06:13:17;;;;;;;0.8;0.3;;;;;;;9.51;74.97168;926.9612;;;;
2023/04/01 06:15:51;;;;;;;0.3;0.3;;;;;;;9.74;77.09766;926.6447;;;;
2023/04/01 06:18:16;;;;;;;0.3;0.3;;;;;;;10.21;75.60742;926.6541;;;;
2023/04/01 06:20:43;;;;;;;0.8;0.5;;;;;;;11.15;71.23242;926.6429;;;;
2023/04/01 06:23:09;;;;;;;0.6;0.2;;;;;;;12.24;67.82422;926.5949;;;;
2023/04/01 06:25:36;;;;;;;0.4;0.4;;;;;;;11.32;68.80176;926.5919;;;;
2023/04/01 06:28:02;;;;;;;1.1;0.4;;;;;;;11.18;71.00977;926.4897;;;;
2023/04/01 06:30:28;;;;;;;0.4;0.4;;;;;;;11.23;69.74805;926.4807;;;;
2023/04/01 06:32:55;;;;;;;0.6;0.5;;;;;;;11.37;70.35449;926.4772;;;;
2023/04/01 06:35:20;;;;;;;0.5;0.5;;;;;;;12.33;66.20996;926.5121;;;;
2023/04/01 06:37:45;;;;;;;0.7;0.2;;;;;;;13.66;63.60645;926.5686;;;;
2023/04/01 06:40:10;;;;;;;0.2;0.2;;;;;;;14.71;57.9043;926.569;;;;
2023/04/01 06:42:35;;;;;;;0.5;0.3;;;;;;;14.37;55.69336;926.5245;;;;
2023/04/01 06:45:03;;;;;;;0.3;0.3;;;;;;;14.03;55.66113;926.6923;;;;
2023/04/01 06:47:30;;;;;;;0.1;0.1;;;;;;;12.99;57.92871;926.705;;;;
2023/04/01 06:49:55;;;;;;;0.2;0.2;;;;;;;13.09;58.75879;926.7378;;;;
2023/04/01 06:52:24;;;;;;;0.4;0.2;;;;;;;12.13;60.80664;926.8453;;;;
2023/04/01 06:54:49;;;;;;;0.3;0.3;;;;;;;10.8;65.24512;926.9537;;;;
2023/04/01 06:57:14;;;;;;;0.6;0.3;;;;;;;10.46;66.44922;926.9612;;;;
2023/04/01 06:59:39;;;;;;;0.7;0.5;;;;;;;10.37;69.20996;926.9402;;;;
2023/04/01 07:02:04;;;;;;;1.6;0.5;;;;;;;9.93;71.33984;926.9658;;;;
2023/04/01 07:04:30;;;;;;;0.4;0.4;;;;;;;10;73.73535;926.9413;;;;
2023/04/01 07:06:57;;;;;;;0.7;0.7;;;;;;;10.39;72.60254;927.0245;;;;
2023/04/01 07:09:22;;;;;;;0.5;0.5;;;;;;;10.35;70.16602;927.0263;;;;
2023/04/01 07:11:49;;;;;;;0.5;0.5;;;;;;;10.8;70.45605;927.0635;;;;
2023/04/01 07:14:14;;;;;;;0.6;0.5;;;;;;;10.92;65.05859;926.9917;;;;
2023/04/01 07:16:39;;;;;;;1;0.6;;;;;;;10.9;69.13379;927.0812;;;;
2023/04/01 07:19:04;;;;;;;0.6;0.4;;;;;;;11.67;69.15625;926.9952;;;;
2023/04/01 07:21:34;;;;;;;0.4;0.4;;;;;;;12.33;64.28516;926.9885;;;;
2023/04/01 07:23:57;;;;;;;0.7;0.6;;;;;;;13.33;60.07715;927.1;;;;
2023/04/01 07:26:22;;;;;;;0.6;0.5;;;;;;;12.66;60.52344;927.0278;;;;
2023/04/01 07:28:47;;;;;;;0.8;0.4;;;;;;;11.42;60.64941;927.0579;;;;
2023/04/01 07:31:16;;;;;;;0.5;0.5;;;;;;;10.73;64.01172;927.1406;;;;
2023/04/01 07:33:41;;;;;;;0.4;0.4;;;;;;;10.1;64.88965;927.1891;;;;
2023/04/01 07:36:06;;;;;;;0.5;0.4;;;;;;;10.53;66.80273;927.1955;;;;
2023/04/01 07:38:31;;;;;;;0.2;0.1;;;;;;;10.68;66.07227;927.1331;;;;
2023/04/01 07:40:58;;;;;;;0.2;0.2;;;;;;;11.63;61.73047;927.0644;;;;
2023/04/01 07:43:26;;;;;;;0.1;0.1;;;;;;;12.26;60.92773;927.0375;;;;
2023/04/01 07:45:53;;;;;;;0.3;0.3;;;;;;;12.56;58.21582;926.9812;;;;
2023/04/01 07:48:19;;;;;;;1.2;0.7;;;;;;;12.75;60.73047;926.9639;;;;
2023/04/01 07:50:44;;;;;;;0.4;0.2;;;;;;;13.4;60.74121;926.8764;;;;
2023/04/01 07:53:09;;;;;;;1.4;0.6;;;;;;;14.49;57.0332;926.8778;;;;
2023/04/01 07:55:34;;;;;;;0.9;0.6;;;;;;;14.72;52.31445;926.8995;;;;
2023/04/01 07:57:59;;;;;;;0.7;0.4;;;;;;;16.26;50.81055;926.8732;;;;
2023/04/01 08:00:24;;;;;;;0.5;0.5;;;;;;;17.24;47.5957;926.8463;;;;
2023/04/01 08:02:51;;;;;;;0.2;0.2;;;;;;;17.23;45.29883;926.8766;;;;
2023/04/01 08:05:18;;;;;;;0.4;0.2;;;;;;;16.88;44.8916;926.9021;;;;
2023/04/01 08:07:43;;;;;;;0.2;0.1;;;;;;;15.66;46.98438;926.9905;;;;
2023/04/01 08:10:09;;;;;;;0.1;0.1;;;;;;;15.35;48.49902;926.9204;;;;
2023/04/01 08:12:33;;;;;;;0.2;0.1;;;;;;;14.85;48.90527;926.9185;;;;
2023/04/01 08:14:59;;;;;;;0.1;0.1;;;;;;;14.97;52.14746;927.0475;;;;
2023/04/01 08:17:25;;;;;;;0.4;0.2;;;;;;;16.78;48.73828;926.8546;;;;
2023/04/01 08:19:51;;;;;;;1.1;0.4;;;;;;;16.38;47.16797;926.8189;;;;
2023/04/01 08:22:18;;;;;;;3.4;2.2;;;;;;;14.94;51.17578;926.9843;;;;
2023/04/01 08:24:43;;;;;;;0.2;0.2;;;;;;;15.18;49.44922;926.8677;;;;
2023/04/01 08:27:08;;;;;;;0.2;0.2;;;;;;;16.67;47.2793;926.7905;;;;
2023/04/01 08:29:35;;;;;;;0.7;0.7;;;;;;;17.34;44.89258;926.879;;;;
2023/04/01 08:31:58;;;;;;;0.2;0.2;;;;;;;17.91;43.05859;926.7267;;;;
2023/04/01 08:34:24;;;;;;;0.1;0.1;;;;;;;19.42;41.74902;926.7899;;;;
2023/04/01 08:36:49;;;;;;;0.2;0.1;;;;;;;18.3;42.03906;926.6861;;;;
2023/04/01 08:39:17;;;;;;;0.1;0.1;;;;;;;17.23;44.30176;926.6158;;;;
2023/04/01 08:41:43;;;;;;;0.2;0.2;;;;;;;17.15;44.52539;926.5836;;;;
2023/04/01 08:44:12;;;;;;;0;0;;;;;;;18.72;42.69531;926.5673;;;;
2023/04/01 08:46:37;;;;;;;0.1;0.1;;;;;;;19.07;41.12207;926.5308;;;;
2023/04/01 08:49:11;;;;;;;0.1;0.1;;;;;;;19.39;40.90918;926.5519;;;;
2023/04/01 08:51:36;;;;;;;0.4;0.2;;;;;;;19.38;39.00684;926.4549;;;;
2023/04/01 08:54:01;;;;;;;0.6;0.3;;;;;;;18.96;39.90137;926.4172;;;;
2023/04/01 08:56:27;;;;;;;0.4;0.2;;;;;;;19.1;41.40527;926.4203;;;;
2023/04/01 08:58:53;;;;;;;0.1;0.1;;;;;;;18.29;41.1084;926.4575;;;;
2023/04/01 09:01:20;;;;;;;0.2;0.1;;;;;;;17.84;41.14746;926.4889;;;;
2023/04/01 09:03:45;;;;;;;0.1;0.1;;;;;;;16.37;43.77539;926.3172;;;;
2023/04/01 09:06:10;;;;;;;0.2;0.2;;;;;;;16.1;46.26953;926.36;;;;
2023/04/01 09:08:38;;;;;;;0.3;0.3;;;;;;;16.44;44.97461;926.4084;;;;
2023/04/01 09:11:03;;;;;;;0.6;0.2;;;;;;;18.02;44.50879;926.5272;;;;
2023/04/01 09:13:31;;;;;;;0.1;0.1;;;;;;;17.05;42.41699;926.3508;;;;
2023/04/01 09:15:58;;;;;;;0.5;0.4;;;;;;;15.93;46.41309;926.576;;;;
2023/04/01 09:18:25;;;;;;;0.2;0.2;;;;;;;17.01;45.14844;926.5165;;;;
2023/04/01 09:20:53;;;;;;;0;0;;;;;;;16.63;40.2002;926.4219;;;;
2023/04/01 09:23:25;;;;;;;0;0;;;;;;;17.49;45.70898;926.4152;;;;
2023/04/01 09:25:50;;;;;;;0.1;0.1;;;;;;;17.1;40.78906;926.4567;;;;
2023/04/01 09:28:19;;;;;;;0.1;0.1;;;;;;;18.17;41.29395;926.4637;;;;
2023/04/01 09:30:45;;;;;;;0.2;0.1;;;;;;;18.03;40.67578;926.3378;;;;
2023/04/01 09:33:10;;;;;;;0.8;0.2;;;;;;;17.81;39.36816;926.3816;;;;
2023/04/01 09:35:41;;;;;;;0.4;0.2;;;;;;;17.09;43.45313;926.4072;;;;
2023/04/01 09:38:05;;;;;;;0.1;0.1;;;;;;;16.49;43.98438;926.3071;;;;
2023/04/01 09:40:37;;;;;;;0.5;0.5;;;;;;;16.44;41.66406;926.3418;;;;
2023/04/01 09:43:08;;;;;;;0.3;0.2;;;;;;;17.03;42.80957;926.2533;;;;
2023/04/01 09:45:33;;;;;;;0.4;0.1;;;;;;;17.01;42.39063;926.2383;;;;
2023/04/01 09:48:01;;;;;;;0.8;0.1;;;;;;;15.96;45.5957;926.1713;;;;
2023/04/01 09:50:26;;;;;;;0.2;0.1;;;;;;;15.82;43.12012;926.1497;;;;
2023/04/01 09:52:56;;;;;;;0.5;0.2;;;;;;;16.56;41.35156;926.2583;;;;
2023/04/01 09:55:21;;;;;;;0.1;0.1;;;;;;;17.5;38.75977;926.1809;;;;
2023/04/01 09:57:46;;;;;;;0.1;0.1;;;;;;;17.82;38.95117;926.1166;;;;
2023/04/01 10:00:12;;;;;;;0.2;0.2;;;;;;;17.51;38.22754;926.1522;;;;
2023/04/01 10:02:42;;;;;;;0.1;0.1;;;;;;;17.15;38.18457;926.1404;;;;
2023/04/01 10:05:07;;;;;;;0.2;0;;;;;;;16.65;38.66211;926.1004;;;;
2023/04/01 10:07:32;;;;;;;0.2;0.1;;;;;;;17.49;38.59668;926.1088;;;;
2023/04/01 10:09:57;;;;;;;0.2;0.2;;;;;;;18.02;39.1543;926.014;;;;
2023/04/01 10:12:23;;;;;;;0.4;0.4;;;;;;;18.07;39.18262;925.985;;;;
2023/04/01 10:14:51;;;;;;;1.2;0.2;;;;;;;18.66;36.67578;925.9955;;;;
2023/04/01 10:17:16;;;;;;;0.2;0.2;;;;;;;18.67;36.6543;925.9288;;;;
2023/04/01 10:19:42;;;;;;;0.1;0.1;;;;;;;18.91;35.74219;925.9706;;;;
2023/04/01 10:22:11;;;;;;;0;0;;;;;;;18.79;37.04785;926.0068;;;;
2023/04/01 10:24:37;;;;;;;0.1;0.1;;;;;;;17.48;34.30469;925.8666;;;;
2023/04/01 10:27:02;;;;;;;1;0.3;;;;;;;17.08;35.28125;925.9442;;;;
2023/04/01 10:29:28;;;;;;;0.3;0.2;;;;;;;17.69;34.34277;925.817;;;;
2023/04/01 10:31:56;;;;;;;1.3;0.4;;;;;;;17.34;34.21094;925.8934;;;;
2023/04/01 10:34:23;;;;;;;0.6;0.6;;;;;;;16.88;37.07129;925.9559;;;;
2023/04/01 10:36:55;;;;;;;1.3;0.8;;;;;;;16.28;37.6123;925.9633;;;;
2023/04/01 10:39:20;;;;;;;0.5;0.3;;;;;;;15.96;37.46875;925.9608;;;;
2023/04/01 10:41:51;;;;;;;0.6;0.2;;;;;;;16.09;37.12109;925.9691;;;;
2023/04/01 10:44:16;;;;;;;0.1;0.1;;;;;;;15.69;41.30469;925.9857;;;;
2023/04/01 10:46:46;;;;;;;0.1;0.1;;;;;;;16.18;40.7373;925.943;;;;
2023/04/01 10:49:36;;;;;;;0;0;;;;;;;16.92;40.35547;925.8015;;;;
2023/04/01 10:52:01;;;;;;;0.3;0.3;;;;;;;17.84;38.54688;925.8605;;;;
2023/04/01 10:54:28;;;;;;;0.1;0.1;;;;;;;17.08;36.08105;925.8195;;;;
2023/04/01 10:56:53;;;;;;;0.1;0.1;;;;;;;17.35;38.42285;925.8681;;;;
2023/04/01 10:59:18;;;;;;;0.1;0.1;;;;;;;17.46;36.35547;925.9384;;;;
2023/04/01 11:01:45;;;;;;;0.1;0.1;;;;;;;17.03;38.13965;925.8719;;;;
2023/04/01 11:04:11;;;;;;;0.1;0.1;;;;;;;17.15;37.38477;925.8535;;;;
2023/04/01 11:06:35;;;;;;;0.1;0.1;;;;;;;17.34;35.25586;925.8417;;;;
2023/04/01 11:09:03;;;;;;;0.9;0.5;;;;;;;17.97;35.99121;925.921;;;;
2023/04/01 11:11:32;;;;;;;0;0;;;;;;;17.77;38.01758;925.9395;;;;
2023/04/01 11:14:01;;;;;;;0;0;;;;;;;17.06;36.77344;925.9109;;;;
2023/04/01 11:16:32;;;;;;;0.6;0.3;;;;;;;16.39;40.79199;925.9211;;;;
2023/04/01 11:18:57;;;;;;;0.1;0.1;;;;;;;16.37;37.73438;925.9219;;;;
2023/04/01 11:21:22;;;;;;;0;0;;;;;;;16.71;42.97559;925.8818;;;;
2023/04/01 11:23:48;;;;;;;0.2;0.2;;;;;;;16.6;38.33398;925.8816;;;;
2023/04/01 11:26:13;;;;;;;0.1;0.1;;;;;;;15.77;38.2959;925.8861;;;;
2023/04/01 11:28:41;;;;;;;0;0;;;;;;;16.18;40.36816;925.9839;;;;
2023/04/01 11:31:06;;;;;;;0.2;0.1;;;;;;;16.76;39.36621;925.9791;;;;
2023/04/01 11:33:34;;;;;;;0;0;;;;;;;16.37;37.78125;926.024;;;;
2023/04/01 11:35:59;;;;;;;0.1;0;;;;;;;15.9;37.99512;925.9885;;;;
2023/04/01 11:38:27;;;;;;;0;0;;;;;;;15.83;40.60059;926.1633;;;;
2023/04/01 11:40:52;;;;;;;0;0;;;;;;;15.24;43.77832;926.2311;;;;
2023/04/01 11:43:19;;;;;;;0.1;0;;;;;;;15.21;42.85156;926.3375;;;;
2023/04/01 11:45:44;;;;;;;2.1;1.1;;;;;;;15.06;43.72461;926.3938;;;;
2023/04/01 11:51:11;;;;;;;0.2;0.2;;;;;;;14.16;47.61914;926.3538;;;;
2023/04/01 11:53:36;;;;;;;0.2;0.1;;;;;;;14.52;46.74707;926.4358;;;;
2023/04/01 11:56:01;;;;;;;0.9;0.1;;;;;;;14.14;47.99609;926.4615;;;;
2023/04/01 11:58:29;;;;;;;0.1;0.1;;;;;;;14.23;44.86328;926.4372;;;;
2023/04/01 12:00:57;;;;;;;0.1;0.1;;;;;;;13.97;49.09473;926.4892;;;;
2023/04/01 12:03:22;;;;;;;0.1;0.1;;;;;;;13.78;48.29004;926.514;;;;
2023/04/01 12:05:47;;;;;;;0.1;0.1;;;;;;;13.95;51.66895;926.6184;;;;
2023/04/01 12:08:12;;;;;;;0.1;0.1;;;;;;;13.7;46.31445;926.4765;;;;
2023/04/01 12:10:37;;;;;;;0.1;0.1;;;;;;;13.18;47.87891;926.6541;;;;
2023/04/01 12:13:03;;;;;;;0.1;0.1;;;;;;;13.11;47.8252;926.7311;;;;
2023/04/01 12:15:33;;;;;;;0;0;;;;;;;12.72;49.27441;926.6163;;;;
2023/04/01 12:17:59;;;;;;;0.1;0.1;;;;;;;12.73;48.85059;926.6567;;;;
2023/04/01 12:20:24;;;;;;;0;0;;;;;;;12.72;49.40137;926.5883;;;;
2023/04/01 12:22:49;;;;;;;0.1;0.1;;;;;;;12.99;50.86719;926.6434;;;;
2023/04/01 12:25:14;;;;;;;0.5;0.4;;;;;;;13.08;48.81055;926.5909;;;;
2023/04/01 12:27:39;;;;;;;0.1;0.1;;;;;;;13.27;47.7168;926.7326;;;;
2023/04/01 12:30:04;;;;;;;0.1;0.1;;;;;;;12.88;49.12109;926.6767;;;;
2023/04/01 12:32:32;;;;;;;0;0;;;;;;;12.87;48.84473;926.7872;;;;
2023/04/01 12:35:00;;;;;;;0.1;0.1;;;;;;;12.99;49.53418;926.7419;;;;
2023/04/01 12:37:23;;;;;;;0.1;0.1;;;;;;;13.14;48.64355;926.7058;;;;
2023/04/01 12:39:55;;;;;;;0.4;0.1;;;;;;;12.79;49.45605;926.7874;;;;
2023/04/01 12:42:22;;;;;;;0.1;0.1;;;;;;;12.81;51.82129;926.7687;;;;
2023/04/01 12:44:49;;;;;;;0.1;0.1;;;;;;;12.45;50.72363;926.7115;;;;
2023/04/01 12:47:16;;;;;;;0.2;0.2;;;;;;;12.2;51.23242;926.8116;;;;
2023/04/01 12:49:45;;;;;;;0.1;0.1;;;;;;;12.08;53.41992;926.7742;;;;
2023/04/01 12:52:11;;;;;;;0;0;;;;;;;11.92;54.70508;926.7476;;;;
2023/04/01 12:54:36;;;;;;;0.1;0.1;;;;;;;11.98;53.35059;926.7539;;;;
2023/04/01 12:57:05;;;;;;;1.5;0.6;;;;;;;12.3;52.35742;926.6753;;;;
2023/04/01 12:59:33;;;;;;;0.9;0.6;;;;;;;12.45;53.33789;926.6062;;;;
2023/04/01 13:01:58;;;;;;;0.3;0.2;;;;;;;12.42;53.54102;926.7625;;;;
2023/04/01 13:04:29;;;;;;;0.1;0.1;;;;;;;12.26;52.18066;926.7342;;;;
2023/04/01 13:06:56;;;;;;;0.1;0.1;;;;;;;12.12;53.50391;926.7338;;;;
2023/04/01 13:09:23;;;;;;;0.2;0.2;;;;;;;12.23;53.67676;926.75;;;;
2023/04/01 13:11:51;;;;;;;0.2;0.2;;;;;;;12.42;53.82813;926.6761;;;;
2023/04/01 13:14:16;;;;;;;0.8;0.2;;;;;;;12.55;53.94629;926.7825;;;;
2023/04/01 13:16:41;;;;;;;0.3;0.3;;;;;;;12.37;52.66309;926.7764;;;;
2023/04/01 13:19:06;;;;;;;0.3;0.3;;;;;;;12.62;54.08203;926.7426;;;;
2023/04/01 13:21:31;;;;;;;0.4;0.2;;;;;;;12.57;53.54883;926.7551;;;;
2023/04/01 13:23:57;;;;;;;1;1;;;;;;;12.59;53.86035;926.8497;;;;
2023/04/01 13:26:25;;;;;;;0.3;0.3;;;;;;;12.39;54.22461;926.8536;;;;
2023/04/01 13:28:50;;;;;;;0.6;0.1;;;;;;;12.2;53.49121;926.8714;;;;
2023/04/01 13:31:16;;;;;;;0.6;0.2;;;;;;;12.38;53.26074;926.8553;;;;
2023/04/01 13:33:41;;;;;;;0.1;0.1;;;;;;;12.41;51.59082;926.925;;;;
2023/04/01 13:36:08;;;;;;;0.2;0.2;;;;;;;12.49;53.24023;926.9088;;;;
2023/04/01 13:38:34;;;;;;;0;0;;;;;;;12.28;53.95898;926.9583;;;;
2023/04/01 13:41:02;;;;;;;0.1;0.1;;;;;;;12.33;52.40723;926.8816;;;;
2023/04/01 13:43:29;;;;;;;0.1;0.1;;;;;;;12.48;55.21094;926.8898;;;;
2023/04/01 13:45:54;;;;;;;0;0;;;;;;;12.29;53.36426;926.8049;;;;
2023/04/01 13:48:19;;;;;;;0;0;;;;;;;12.11;54.85547;926.848;;;;
2023/04/01 13:50:44;;;;;;;0.1;0.1;;;;;;;12.3;53.09082;926.7288;;;;
2023/04/01 13:53:09;;;;;;;0.1;0.1;;;;;;;12.32;52.12891;926.6911;;;;
2023/04/01 13:55:38;;;;;;;0.1;0.1;;;;;;;12.29;52.72266;926.6364;;;;
2023/04/01 13:58:04;;;;;;;0.1;0.1;;;;;;;12.38;52.22949;926.5878;;;;
2023/04/01 14:00:35;;;;;;;0.1;0.1;;;;;;;12.35;52.29297;926.6515;;;;
2023/04/01 14:03:01;;;;;;;0.2;0.2;;;;;;;12.42;51.00684;926.6929;;;;
2023/04/01 14:05:26;;;;;;;0.1;0.1;;;;;;;11.86;52.23535;926.6272;;;;
2023/04/01 14:07:51;;;;;;;0.2;0.2;;;;;;;12.14;51.16895;926.755;;;;
2023/04/01 14:10:18;;;;;;;0.2;0.2;;;;;;;12.31;49.96191;926.6769;;;;
2023/04/01 14:12:47;;;;;;;0.9;0.3;;;;;;;12.39;50.0293;926.8017;;;;
2023/04/01 14:15:19;;;;;;;0.1;0.1;;;;;;;12.29;50.00586;926.7353;;;;
2023/04/01 14:17:46;;;;;;;0.2;0.2;;;;;;;12.75;51.27441;926.7339;;;;
2023/04/01 14:20:07;;;;;;;0.5;0.1;;;;;;;12.81;50.50098;926.6969;;;;
2023/04/01 14:22:32;;;;;;;0.2;0.2;;;;;;;12.86;48.45215;926.7434;;;;
2023/04/01 14:24:59;;;;;;;0.2;0.1;;;;;;;13.18;51.58984;926.6972;;;;
2023/04/01 14:27:25;;;;;;;1.1;0.5;;;;;;;13.42;48.88281;926.6923;;;;
2023/04/01 14:29:51;;;;;;;0.2;0.2;;;;;;;13.11;48.98535;926.7296;;;;
2023/04/01 14:32:16;;;;;;;0.5;0.5;;;;;;;13.15;49.58789;926.728;;;;
2023/04/01 14:34:44;;;;;;;0.3;0.3;;;;;;;13.32;48.11328;926.7955;;;;
2023/04/01 14:37:12;;;;;;;0.3;0.3;;;;;;;13.09;47.30664;926.7355;;;;
2023/04/01 14:39:36;;;;;;;0.1;0.1;;;;;;;12.51;50.14453;926.8;;;;
2023/04/01 14:42:01;;;;;;;0.3;0.3;;;;;;;12.25;49.85254;926.8477;;;;
2023/04/01 14:44:26;;;;;;;2.1;1.7;;;;;;;12.26;52.16992;926.8524;;;;
2023/04/01 14:46:51;;;;;;;0.4;0.4;;;;;;;12.38;50.34766;926.872;;;;
2023/04/01 14:49:16;;;;;;;0.2;0.2;;;;;;;12.55;50.88379;926.8728;;;;
2023/04/01 14:51:41;;;;;;;0.1;0.1;;;;;;;12.38;50.46289;926.9384;;;;
2023/04/01 14:54:09;;;;;;;0.1;0.1;;;;;;;12.51;51.2002;926.8864;;;;
2023/04/01 14:56:34;;;;;;;0.6;0.1;;;;;;;12.54;52.38574;926.8714;;;;
2023/04/01 14:59:02;;;;;;;0.3;0.1;;;;;;;12.5;51.93262;926.884;;;;
2023/04/01 15:01:27;;;;;;;1.5;0.9;;;;;;;12.64;51.37793;926.802;;;;
2023/04/01 15:03:54;;;;;;;0.1;0.1;;;;;;;12.34;49.8623;926.7146;;;;
2023/04/01 15:06:21;;;;;;;0.2;0.2;;;;;;;12.28;49.69434;926.8114;;;;
2023/04/01 15:08:46;;;;;;;0.3;0.3;;;;;;;12.27;50.86328;926.766;;;;
2023/04/01 15:11:12;;;;;;;0.4;0.2;;;;;;;12.35;50.89551;926.7631;;;;
2023/04/01 15:13:37;;;;;;;0.2;0.2;;;;;;;12.42;49.86035;926.7592;;;;
2023/04/01 15:16:10;;;;;;;0.6;0.4;;;;;;;12.48;51.07031;926.7989;;;;
2023/04/01 15:18:35;;;;;;;1;0.9;;;;;;;12.41;49.49219;926.8436;;;;
2023/04/01 15:21:05;;;;;;;1;0.9;;;;;;;12.35;50.02344;926.9387;;;;
2023/04/01 15:23:31;;;;;;;1.4;1.3;;;;;;;12.41;51.05176;926.9394;;;;
2023/04/01 15:26:01;;;;;;;0.2;0.2;;;;;;;12.25;49.30078;926.894;;;;
2023/04/01 15:28:26;;;;;;;0.2;0.2;;;;;;;12.31;48.91895;926.9434;;;;
2023/04/01 15:30:51;;;;;;;0.2;0.2;;;;;;;12.14;49.03711;927.0742;;;;
2023/04/01 15:33:16;;;;;;;0.1;0.1;;;;;;;12.12;50.95898;927.1855;;;;
2023/04/01 15:35:43;;;;;;;0.2;0.2;;;;;;;12.08;51.08105;927.2849;;;;
2023/04/01 15:38:08;;;;;;;0.1;0.1;;;;;;;11.87;54.29785;927.3625;;;;
2023/04/01 15:40:34;;;;;;;0.1;0.1;;;;;;;11.85;57.14844;927.377;;;;
2023/04/01 15:42:59;;;;;;;0.1;0.1;;;;;;;12.06;54.26465;927.3546;;;;
2023/04/01 15:45:25;;;;;;;0.5;0.3;;;;;;;12.28;53.78809;927.2775;;;;
2023/04/01 15:47:50;;;;;;;0.2;0.2;;;;;;;12.33;54.14941;927.2648;;;;
2023/04/01 15:50:15;;;;;;;0.3;0.3;;;;;;;12.48;52.5957;927.127;;;;
2023/04/01 15:52:40;;;;;;;3.1;2.3;;;;;;;12.52;49.87109;927.1982;;;;
2023/04/01 15:55:11;;;;;;;0.1;0.1;;;;;;;12.06;49.14258;927.2149;;;;
2023/04/01 15:57:39;;;;;;;19.4;16.1;;;;;;;11.94;52.02637;927.2395;;;;
2023/04/01 16:00:04;;;;;;;0.9;0.9;;;;;;;11.94;51.20117;927.2706;;;;
2023/04/01 16:02:36;;;;;;;1.1;0.8;;;;;;;11.91;52.6875;927.2662;;;;